Tafton, Pennsylvania
Current Conditions -  °F | °C
As of 3:53 PM on Friday 24 Oct 2014 (Local Time) from KMPO Reporting Station
Clear Clear  
Wind Chill: 60°   Ceiling: Unl
Heat Index: 60°   Visibility: 10mi
Dew Point: 40°   Wind: 18mph
Humidity: 47%   Direction: 310°NW
Pressure: 29.81"   Gusts: 25mph
Location:  41.4°N, 75.18°W
Report Text: KMPO 241953Z AUTO 31016G22KT 10SM CLR 16/04 A2981 RMK AO2 PK WND 34030/1928 SLP097 T01560044
Loading
Personal Weather Stations






























Interactive Weather Map
Tropical Storm Tracking
New forecast layout! Learn more

10-Day Weather Forecast

Advertisements
Track Severe Weather on mobile